sensor_id;sensor_type;location;lat;lon;timestamp;P1;durP1;ratioP1;P2;durP2;ratioP2
2672;SDS011;1346;51.558;6.996;2022-09-09T00:01:15;4.93;;;1.60;;
2672;SDS011;1346;51.558;6.996;2022-09-09T00:03:59;6.47;;;1.93;;
2672;SDS011;1346;51.558;6.996;2022-09-09T00:06:31;6.07;;;2.07;;
2672;SDS011;1346;51.558;6.996;2022-09-09T00:09:12;4.50;;;1.53;;
2672;SDS011;1346;51.558;6.996;2022-09-09T00:11:43;5.20;;;2.20;;
2672;SDS011;1346;51.558;6.996;2022-09-09T00:14:17;5.23;;;2.13;;
2672;SDS011;1346;51.558;6.996;2022-09-09T00:16:52;5.47;;;2.17;;
2672;SDS011;1346;51.558;6.996;2022-09-09T00:19:28;5.63;;;2.40;;
2672;SDS011;1346;51.558;6.996;2022-09-09T00:22:08;11.13;;;3.07;;
2672;SDS011;1346;51.558;6.996;2022-09-09T00:24:43;6.33;;;2.50;;
2672;SDS011;1346;51.558;6.996;2022-09-09T00:27:14;5.47;;;2.17;;
2672;SDS011;1346;51.558;6.996;2022-09-09T00:29:51;7.00;;;1.90;;
2672;SDS011;1346;51.558;6.996;2022-09-09T00:32:22;4.80;;;2.17;;
2672;SDS011;1346;51.558;6.996;2022-09-09T00:34:58;6.03;;;2.13;;
2672;SDS011;1346;51.558;6.996;2022-09-09T00:37:37;5.80;;;3.03;;
2672;SDS011;1346;51.558;6.996;2022-09-09T00:40:08;7.60;;;2.57;;
2672;SDS011;1346;51.558;6.996;2022-09-09T00:42:52;5.27;;;2.07;;
2672;SDS011;1346;51.558;6.996;2022-09-09T00:45:42;4.50;;;2.73;;
2672;SDS011;1346;51.558;6.996;2022-09-09T00:48:33;7.50;;;2.20;;
2672;SDS011;1346;51.558;6.996;2022-09-09T00:51:14;4.63;;;2.03;;
2672;SDS011;1346;51.558;6.996;2022-09-09T00:54:03;3.93;;;2.00;;
2672;SDS011;1346;51.558;6.996;2022-09-09T00:56:56;4.70;;;1.90;;
2672;SDS011;1346;51.558;6.996;2022-09-09T00:59:55;4.43;;;1.80;;
2672;SDS011;1346;51.558;6.996;2022-09-09T01:02:43;7.37;;;2.20;;
2672;SDS011;1346;51.558;6.996;2022-09-09T01:05:33;4.07;;;1.83;;
2672;SDS011;1346;51.558;6.996;2022-09-09T01:08:11;3.20;;;1.80;;
2672;SDS011;1346;51.558;6.996;2022-09-09T01:10:55;6.27;;;2.03;;
2672;SDS011;1346;51.558;6.996;2022-09-09T01:13:25;4.80;;;1.70;;
2672;SDS011;1346;51.558;6.996;2022-09-09T01:15:56;4.70;;;2.03;;
2672;SDS011;1346;51.558;6.996;2022-09-09T01:18:26;3.90;;;1.43;;
2672;SDS011;1346;51.558;6.996;2022-09-09T01:21:01;4.77;;;1.80;;
2672;SDS011;1346;51.558;6.996;2022-09-09T01:23:49;5.13;;;1.83;;
2672;SDS011;1346;51.558;6.996;2022-09-09T01:26:43;6.13;;;2.53;;
2672;SDS011;1346;51.558;6.996;2022-09-09T01:29:12;6.70;;;2.67;;
2672;SDS011;1346;51.558;6.996;2022-09-09T01:31:51;3.90;;;2.03;;
2672;SDS011;1346;51.558;6.996;2022-09-09T01:34:21;6.30;;;2.90;;
2672;SDS011;1346;51.558;6.996;2022-09-09T01:36:50;7.10;;;3.20;;
2672;SDS011;1346;51.558;6.996;2022-09-09T01:39:24;4.83;;;2.30;;
2672;SDS011;1346;51.558;6.996;2022-09-09T01:41:53;3.10;;;2.23;;
2672;SDS011;1346;51.558;6.996;2022-09-09T01:44:22;4.83;;;1.83;;
2672;SDS011;1346;51.558;6.996;2022-09-09T01:46:50;3.90;;;2.30;;
2672;SDS011;1346;51.558;6.996;2022-09-09T01:49:17;6.43;;;2.60;;
2672;SDS011;1346;51.558;6.996;2022-09-09T01:51:46;6.10;;;2.53;;
2672;SDS011;1346;51.558;6.996;2022-09-09T01:54:15;5.30;;;2.40;;
2672;SDS011;1346;51.558;6.996;2022-09-09T01:56:46;3.17;;;1.60;;
2672;SDS011;1346;51.558;6.996;2022-09-09T01:59:25;8.23;;;2.40;;
2672;SDS011;1346;51.558;6.996;2022-09-09T02:02:14;4.53;;;2.47;;
2672;SDS011;1346;51.558;6.996;2022-09-09T02:04:49;8.60;;;3.10;;
2672;SDS011;1346;51.558;6.996;2022-09-09T02:07:23;6.83;;;3.03;;
2672;SDS011;1346;51.558;6.996;2022-09-09T02:10:05;3.70;;;2.30;;
2672;SDS011;1346;51.558;6.996;2022-09-09T02:12:43;6.00;;;2.00;;
2672;SDS011;1346;51.558;6.996;2022-09-09T02:15:16;7.90;;;2.37;;
2672;SDS011;1346;51.558;6.996;2022-09-09T02:17:54;2.80;;;2.20;;
2672;SDS011;1346;51.558;6.996;2022-09-09T02:20:24;10.63;;;2.70;;
2672;SDS011;1346;51.558;6.996;2022-09-09T02:22:53;8.53;;;2.70;;
2672;SDS011;1346;51.558;6.996;2022-09-09T02:25:22;7.40;;;2.83;;
2672;SDS011;1346;51.558;6.996;2022-09-09T02:27:54;4.67;;;2.43;;
2672;SDS011;1346;51.558;6.996;2022-09-09T02:30:23;7.60;;;2.60;;
2672;SDS011;1346;51.558;6.996;2022-09-09T02:32:50;4.07;;;2.40;;
2672;SDS011;1346;51.558;6.996;2022-09-09T02:35:23;6.73;;;2.70;;
2672;SDS011;1346;51.558;6.996;2022-09-09T02:37:53;4.63;;;2.47;;
2672;SDS011;1346;51.558;6.996;2022-09-09T02:40:25;4.53;;;1.90;;
2672;SDS011;1346;51.558;6.996;2022-09-09T02:42:54;4.20;;;2.97;;
2672;SDS011;1346;51.558;6.996;2022-09-09T02:45:22;4.10;;;2.60;;
2672;SDS011;1346;51.558;6.996;2022-09-09T02:47:55;8.70;;;2.70;;
2672;SDS011;1346;51.558;6.996;2022-09-09T02:50:31;3.73;;;2.43;;
2672;SDS011;1346;51.558;6.996;2022-09-09T02:53:03;3.77;;;2.20;;
2672;SDS011;1346;51.558;6.996;2022-09-09T02:55:38;3.43;;;2.30;;
2672;SDS011;1346;51.558;6.996;2022-09-09T02:58:10;2.90;;;1.70;;
2672;SDS011;1346;51.558;6.996;2022-09-09T03:00:42;7.27;;;2.70;;
2672;SDS011;1346;51.558;6.996;2022-09-09T03:03:11;4.00;;;2.23;;
2672;SDS011;1346;51.558;6.996;2022-09-09T03:05:41;6.37;;;2.57;;
2672;SDS011;1346;51.558;6.996;2022-09-09T03:08:08;7.63;;;2.50;;
2672;SDS011;1346;51.558;6.996;2022-09-09T03:10:36;6.23;;;3.13;;
2672;SDS011;1346;51.558;6.996;2022-09-09T03:13:03;11.10;;;2.40;;
2672;SDS011;1346;51.558;6.996;2022-09-09T03:15:32;5.80;;;2.80;;
2672;SDS011;1346;51.558;6.996;2022-09-09T03:17:59;3.53;;;2.13;;
2672;SDS011;1346;51.558;6.996;2022-09-09T03:20:27;4.40;;;2.40;;
2672;SDS011;1346;51.558;6.996;2022-09-09T03:22:55;6.63;;;2.47;;
2672;SDS011;1346;51.558;6.996;2022-09-09T03:25:25;3.93;;;2.40;;
2672;SDS011;1346;51.558;6.996;2022-09-09T03:27:52;4.40;;;2.50;;
2672;SDS011;1346;51.558;6.996;2022-09-09T03:30:20;8.23;;;1.93;;
2672;SDS011;1346;51.558;6.996;2022-09-09T03:32:49;4.70;;;2.27;;
2672;SDS011;1346;51.558;6.996;2022-09-09T03:35:16;4.80;;;1.93;;
2672;SDS011;1346;51.558;6.996;2022-09-09T03:37:44;3.93;;;2.17;;
2672;SDS011;1346;51.558;6.996;2022-09-09T03:40:11;6.50;;;2.97;;
2672;SDS011;1346;51.558;6.996;2022-09-09T03:42:38;6.60;;;2.43;;
2672;SDS011;1346;51.558;6.996;2022-09-09T03:45:06;11.27;;;2.87;;
2672;SDS011;1346;51.558;6.996;2022-09-09T03:47:36;9.53;;;2.83;;
2672;SDS011;1346;51.558;6.996;2022-09-09T03:50:06;7.80;;;2.57;;
2672;SDS011;1346;51.558;6.996;2022-09-09T03:52:35;6.37;;;2.40;;
2672;SDS011;1346;51.558;6.996;2022-09-09T03:55:03;6.50;;;2.90;;
2672;SDS011;1346;51.558;6.996;2022-09-09T03:57:31;7.63;;;2.33;;
2672;SDS011;1346;51.558;6.996;2022-09-09T04:00:00;10.23;;;2.90;;
2672;SDS011;1346;51.558;6.996;2022-09-09T04:02:28;7.17;;;2.60;;
2672;SDS011;1346;51.558;6.996;2022-09-09T04:04:55;8.70;;;2.50;;
2672;SDS011;1346;51.558;6.996;2022-09-09T04:07:23;10.70;;;2.70;;
2672;SDS011;1346;51.558;6.996;2022-09-09T04:09:52;6.53;;;2.10;;
2672;SDS011;1346;51.558;6.996;2022-09-09T04:12:19;5.27;;;2.20;;
2672;SDS011;1346;51.558;6.996;2022-09-09T04:14:47;8.17;;;2.93;;
2672;SDS011;1346;51.558;6.996;2022-09-09T04:17:15;10.00;;;2.63;;
2672;SDS011;1346;51.558;6.996;2022-09-09T04:19:42;7.80;;;3.27;;
2672;SDS011;1346;51.558;6.996;2022-09-09T04:22:09;7.33;;;3.33;;
2672;SDS011;1346;51.558;6.996;2022-09-09T04:24:37;5.20;;;2.53;;
2672;SDS011;1346;51.558;6.996;2022-09-09T04:27:04;6.70;;;3.03;;
2672;SDS011;1346;51.558;6.996;2022-09-09T04:29:31;6.17;;;3.17;;
2672;SDS011;1346;51.558;6.996;2022-09-09T04:31:58;7.27;;;2.30;;
2672;SDS011;1346;51.558;6.996;2022-09-09T04:34:25;4.83;;;2.43;;
2672;SDS011;1346;51.558;6.996;2022-09-09T04:36:52;4.60;;;2.60;;
2672;SDS011;1346;51.558;6.996;2022-09-09T04:39:19;4.83;;;2.50;;
2672;SDS011;1346;51.558;6.996;2022-09-09T04:41:47;13.07;;;4.43;;
2672;SDS011;1346;51.558;6.996;2022-09-09T04:44:14;9.73;;;7.00;;
2672;SDS011;1346;51.558;6.996;2022-09-09T04:46:41;22.73;;;13.47;;
2672;SDS011;1346;51.558;6.996;2022-09-09T04:49:08;46.17;;;33.47;;
2672;SDS011;1346;51.558;6.996;2022-09-09T04:51:35;56.03;;;41.53;;
2672;SDS011;1346;51.558;6.996;2022-09-09T04:54:02;54.30;;;43.23;;
2672;SDS011;1346;51.558;6.996;2022-09-09T04:56:30;51.33;;;37.80;;
2672;SDS011;1346;51.558;6.996;2022-09-09T04:58:59;45.83;;;34.77;;
2672;SDS011;1346;51.558;6.996;2022-09-09T05:01:27;39.57;;;35.10;;
2672;SDS011;1346;51.558;6.996;2022-09-09T05:03:54;45.67;;;34.17;;
2672;SDS011;1346;51.558;6.996;2022-09-09T05:06:22;44.20;;;37.03;;
2672;SDS011;1346;51.558;6.996;2022-09-09T05:08:49;53.10;;;40.70;;
2672;SDS011;1346;51.558;6.996;2022-09-09T05:11:17;50.40;;;40.10;;
2672;SDS011;1346;51.558;6.996;2022-09-09T05:13:47;41.53;;;36.80;;
2672;SDS011;1346;51.558;6.996;2022-09-09T05:16:16;51.57;;;35.77;;
2672;SDS011;1346;51.558;6.996;2022-09-09T05:18:44;45.90;;;35.53;;
2672;SDS011;1346;51.558;6.996;2022-09-09T05:21:13;40.87;;;33.47;;
2672;SDS011;1346;51.558;6.996;2022-09-09T05:23:42;35.27;;;29.90;;
2672;SDS011;1346;51.558;6.996;2022-09-09T05:26:09;37.03;;;24.40;;
2672;SDS011;1346;51.558;6.996;2022-09-09T05:28:40;29.10;;;18.73;;
2672;SDS011;1346;51.558;6.996;2022-09-09T05:31:07;21.93;;;16.67;;
2672;SDS011;1346;51.558;6.996;2022-09-09T05:33:39;19.33;;;13.87;;
2672;SDS011;1346;51.558;6.996;2022-09-09T05:36:08;19.70;;;12.30;;
2672;SDS011;1346;51.558;6.996;2022-09-09T05:38:38;17.53;;;11.80;;
2672;SDS011;1346;51.558;6.996;2022-09-09T05:41:06;15.57;;;11.57;;
2672;SDS011;1346;51.558;6.996;2022-09-09T05:43:34;17.53;;;11.87;;
2672;SDS011;1346;51.558;6.996;2022-09-09T05:46:04;18.27;;;10.00;;
2672;SDS011;1346;51.558;6.996;2022-09-09T05:48:33;15.23;;;10.57;;
2672;SDS011;1346;51.558;6.996;2022-09-09T05:51:03;17.27;;;10.70;;
2672;SDS011;1346;51.558;6.996;2022-09-09T05:53:32;14.90;;;10.50;;
2672;SDS011;1346;51.558;6.996;2022-09-09T05:56:00;15.37;;;8.83;;
2672;SDS011;1346;51.558;6.996;2022-09-09T05:58:29;19.13;;;8.20;;
2672;SDS011;1346;51.558;6.996;2022-09-09T06:01:03;13.70;;;7.20;;
2672;SDS011;1346;51.558;6.996;2022-09-09T06:03:34;14.43;;;7.10;;
2672;SDS011;1346;51.558;6.996;2022-09-09T06:06:04;16.50;;;5.90;;
2672;SDS011;1346;51.558;6.996;2022-09-09T06:08:33;11.77;;;6.80;;
2672;SDS011;1346;51.558;6.996;2022-09-09T06:11:03;8.33;;;5.77;;
2672;SDS011;1346;51.558;6.996;2022-09-09T06:13:33;14.70;;;6.63;;
2672;SDS011;1346;51.558;6.996;2022-09-09T06:16:00;9.13;;;4.70;;
2672;SDS011;1346;51.558;6.996;2022-09-09T06:18:27;9.80;;;4.90;;
2672;SDS011;1346;51.558;6.996;2022-09-09T06:20:55;11.17;;;4.60;;
2672;SDS011;1346;51.558;6.996;2022-09-09T06:23:25;11.00;;;4.30;;
2672;SDS011;1346;51.558;6.996;2022-09-09T06:26:00;11.43;;;4.23;;
2672;SDS011;1346;51.558;6.996;2022-09-09T06:28:30;9.63;;;3.80;;
2672;SDS011;1346;51.558;6.996;2022-09-09T06:30:58;8.00;;;3.80;;
2672;SDS011;1346;51.558;6.996;2022-09-09T06:33:25;9.17;;;3.33;;
2672;SDS011;1346;51.558;6.996;2022-09-09T06:35:53;10.87;;;4.20;;
2672;SDS011;1346;51.558;6.996;2022-09-09T06:38:22;9.67;;;3.50;;
2672;SDS011;1346;51.558;6.996;2022-09-09T06:40:54;6.87;;;3.20;;
2672;SDS011;1346;51.558;6.996;2022-09-09T06:43:22;8.30;;;2.80;;
2672;SDS011;1346;51.558;6.996;2022-09-09T06:45:54;8.80;;;3.50;;
2672;SDS011;1346;51.558;6.996;2022-09-09T06:48:22;7.90;;;3.07;;
2672;SDS011;1346;51.558;6.996;2022-09-09T06:50:50;8.50;;;2.80;;
2672;SDS011;1346;51.558;6.996;2022-09-09T06:53:25;5.03;;;2.20;;
2672;SDS011;1346;51.558;6.996;2022-09-09T06:55:53;5.33;;;2.47;;
2672;SDS011;1346;51.558;6.996;2022-09-09T06:58:20;8.47;;;2.63;;
2672;SDS011;1346;51.558;6.996;2022-09-09T07:00:48;6.93;;;2.70;;
2672;SDS011;1346;51.558;6.996;2022-09-09T07:03:15;5.10;;;2.57;;
2672;SDS011;1346;51.558;6.996;2022-09-09T07:05:42;12.23;;;3.30;;
2672;SDS011;1346;51.558;6.996;2022-09-09T07:08:10;5.90;;;2.23;;
2672;SDS011;1346;51.558;6.996;2022-09-09T07:10:37;7.13;;;2.40;;
2672;SDS011;1346;51.558;6.996;2022-09-09T07:13:05;5.23;;;2.60;;
2672;SDS011;1346;51.558;6.996;2022-09-09T07:15:32;5.90;;;2.33;;
2672;SDS011;1346;51.558;6.996;2022-09-09T07:18:00;11.70;;;2.97;;
2672;SDS011;1346;51.558;6.996;2022-09-09T07:20:28;8.50;;;3.07;;
2672;SDS011;1346;51.558;6.996;2022-09-09T07:22:55;6.03;;;2.67;;
2672;SDS011;1346;51.558;6.996;2022-09-09T07:25:23;7.80;;;2.70;;
2672;SDS011;1346;51.558;6.996;2022-09-09T07:27:51;11.00;;;3.10;;
2672;SDS011;1346;51.558;6.996;2022-09-09T07:30:20;8.57;;;3.00;;
2672;SDS011;1346;51.558;6.996;2022-09-09T07:32:47;4.47;;;2.60;;
2672;SDS011;1346;51.558;6.996;2022-09-09T07:35:17;6.60;;;2.50;;
2672;SDS011;1346;51.558;6.996;2022-09-09T07:37:44;6.20;;;2.60;;
2672;SDS011;1346;51.558;6.996;2022-09-09T07:40:11;8.30;;;2.50;;
2672;SDS011;1346;51.558;6.996;2022-09-09T07:42:38;4.77;;;2.40;;
2672;SDS011;1346;51.558;6.996;2022-09-09T07:45:05;5.77;;;2.70;;
2672;SDS011;1346;51.558;6.996;2022-09-09T07:47:34;5.57;;;2.07;;
2672;SDS011;1346;51.558;6.996;2022-09-09T07:50:01;5.97;;;2.10;;
2672;SDS011;1346;51.558;6.996;2022-09-09T07:52:28;10.00;;;2.00;;
2672;SDS011;1346;51.558;6.996;2022-09-09T07:54:55;5.87;;;1.70;;
2672;SDS011;1346;51.558;6.996;2022-09-09T07:57:22;6.60;;;1.70;;
2672;SDS011;1346;51.558;6.996;2022-09-09T07:59:50;6.60;;;2.20;;
2672;SDS011;1346;51.558;6.996;2022-09-09T08:02:17;9.23;;;2.23;;
2672;SDS011;1346;51.558;6.996;2022-09-09T08:04:45;8.90;;;2.00;;
2672;SDS011;1346;51.558;6.996;2022-09-09T08:07:12;4.33;;;1.80;;
2672;SDS011;1346;51.558;6.996;2022-09-09T08:09:39;5.50;;;1.83;;
2672;SDS011;1346;51.558;6.996;2022-09-09T08:12:06;17.90;;;2.03;;
2672;SDS011;1346;51.558;6.996;2022-09-09T08:14:34;7.10;;;2.43;;
2672;SDS011;1346;51.558;6.996;2022-09-09T08:17:01;6.37;;;1.50;;
2672;SDS011;1346;51.558;6.996;2022-09-09T08:19:28;7.70;;;2.00;;
2672;SDS011;1346;51.558;6.996;2022-09-09T08:22:00;10.63;;;1.70;;
2672;SDS011;1346;51.558;6.996;2022-09-09T08:24:27;8.47;;;1.90;;
2672;SDS011;1346;51.558;6.996;2022-09-09T08:26:55;6.20;;;1.70;;
2672;SDS011;1346;51.558;6.996;2022-09-09T08:29:22;11.53;;;1.97;;
2672;SDS011;1346;51.558;6.996;2022-09-09T08:31:50;7.77;;;3.50;;
2672;SDS011;1346;51.558;6.996;2022-09-09T08:34:19;6.20;;;1.50;;
2672;SDS011;1346;51.558;6.996;2022-09-09T08:36:47;4.87;;;1.93;;
2672;SDS011;1346;51.558;6.996;2022-09-09T08:39:18;8.10;;;2.70;;
2672;SDS011;1346;51.558;6.996;2022-09-09T08:45:03;7.90;;;1.93;;
2672;SDS011;1346;51.558;6.996;2022-09-09T08:47:47;5.30;;;1.67;;
2672;SDS011;1346;51.558;6.996;2022-09-09T08:50:32;7.40;;;1.80;;
2672;SDS011;1346;51.558;6.996;2022-09-09T08:53:04;6.53;;;2.20;;
2672;SDS011;1346;51.558;6.996;2022-09-09T08:55:39;5.90;;;1.67;;
2672;SDS011;1346;51.558;6.996;2022-09-09T08:58:12;10.57;;;2.00;;
2672;SDS011;1346;51.558;6.996;2022-09-09T09:00:45;4.80;;;1.13;;
2672;SDS011;1346;51.558;6.996;2022-09-09T09:03:46;4.73;;;1.60;;
2672;SDS011;1346;51.558;6.996;2022-09-09T09:06:24;7.60;;;1.20;;
2672;SDS011;1346;51.558;6.996;2022-09-09T09:09:07;4.30;;;1.37;;
2672;SDS011;1346;51.558;6.996;2022-09-09T09:11:45;4.27;;;1.70;;
2672;SDS011;1346;51.558;6.996;2022-09-09T09:14:17;5.73;;;1.60;;
2672;SDS011;1346;51.558;6.996;2022-09-09T09:16:48;5.20;;;2.20;;
2672;SDS011;1346;51.558;6.996;2022-09-09T09:19:19;6.63;;;2.00;;
2672;SDS011;1346;51.558;6.996;2022-09-09T09:21:48;5.53;;;1.50;;
2672;SDS011;1346;51.558;6.996;2022-09-09T09:24:23;6.00;;;1.40;;
2672;SDS011;1346;51.558;6.996;2022-09-09T09:27:07;7.47;;;1.97;;
2672;SDS011;1346;51.558;6.996;2022-09-09T09:29:40;7.23;;;1.47;;
2672;SDS011;1346;51.558;6.996;2022-09-09T09:32:10;4.07;;;1.40;;
2672;SDS011;1346;51.558;6.996;2022-09-09T09:34:47;2.80;;;1.20;;
2672;SDS011;1346;51.558;6.996;2022-09-09T09:37:17;5.20;;;1.57;;
2672;SDS011;1346;51.558;6.996;2022-09-09T09:39:53;3.90;;;1.40;;
2672;SDS011;1346;51.558;6.996;2022-09-09T09:42:22;6.60;;;1.50;;
2672;SDS011;1346;51.558;6.996;2022-09-09T09:44:49;9.00;;;2.03;;
2672;SDS011;1346;51.558;6.996;2022-09-09T09:47:17;4.30;;;1.30;;
2672;SDS011;1346;51.558;6.996;2022-09-09T09:49:53;3.07;;;1.23;;
2672;SDS011;1346;51.558;6.996;2022-09-09T09:52:21;6.23;;;1.30;;
2672;SDS011;1346;51.558;6.996;2022-09-09T09:54:51;4.80;;;2.37;;
2672;SDS011;1346;51.558;6.996;2022-09-09T09:57:24;5.20;;;1.43;;
2672;SDS011;1346;51.558;6.996;2022-09-09T10:00:00;5.23;;;1.63;;
2672;SDS011;1346;51.558;6.996;2022-09-09T10:02:39;2.90;;;1.10;;
2672;SDS011;1346;51.558;6.996;2022-09-09T10:05:12;8.87;;;1.60;;
2672;SDS011;1346;51.558;6.996;2022-09-09T10:07:41;5.00;;;1.43;;
2672;SDS011;1346;51.558;6.996;2022-09-09T10:10:12;7.60;;;1.70;;
2672;SDS011;1346;51.558;6.996;2022-09-09T10:12:50;5.40;;;1.90;;
2672;SDS011;1346;51.558;6.996;2022-09-09T10:15:31;7.83;;;2.17;;
2672;SDS011;1346;51.558;6.996;2022-09-09T10:18:17;4.77;;;1.60;;
2672;SDS011;1346;51.558;6.996;2022-09-09T10:21:07;6.90;;;2.00;;
2672;SDS011;1346;51.558;6.996;2022-09-09T10:23:52;5.03;;;1.97;;
2672;SDS011;1346;51.558;6.996;2022-09-09T10:26:40;3.93;;;1.37;;
2672;SDS011;1346;51.558;6.996;2022-09-09T10:29:21;9.20;;;2.80;;
2672;SDS011;1346;51.558;6.996;2022-09-09T10:32:11;7.47;;;1.73;;
2672;SDS011;1346;51.558;6.996;2022-09-09T10:35:02;4.60;;;1.47;;
2672;SDS011;1346;51.558;6.996;2022-09-09T10:37:41;2.80;;;1.00;;
2672;SDS011;1346;51.558;6.996;2022-09-09T10:40:42;3.20;;;0.77;;
2672;SDS011;1346;51.558;6.996;2022-09-09T10:43:28;7.97;;;1.63;;
2672;SDS011;1346;51.558;6.996;2022-09-09T10:46:28;10.10;;;1.40;;
2672;SDS011;1346;51.558;6.996;2022-09-09T10:49:08;5.13;;;1.37;;
2672;SDS011;1346;51.558;6.996;2022-09-09T10:51:49;2.27;;;0.80;;
2672;SDS011;1346;51.558;6.996;2022-09-09T10:54:29;6.80;;;1.40;;
2672;SDS011;1346;51.558;6.996;2022-09-09T10:57:12;4.23;;;1.40;;
2672;SDS011;1346;51.558;6.996;2022-09-09T10:59:48;2.50;;;1.27;;
2672;SDS011;1346;51.558;6.996;2022-09-09T11:02:25;3.40;;;1.30;;
2672;SDS011;1346;51.558;6.996;2022-09-09T11:04:55;6.83;;;1.00;;
2672;SDS011;1346;51.558;6.996;2022-09-09T11:07:29;5.90;;;1.43;;
2672;SDS011;1346;51.558;6.996;2022-09-09T11:10:04;4.47;;;1.10;;
2672;SDS011;1346;51.558;6.996;2022-09-09T11:12:43;2.30;;;0.97;;
2672;SDS011;1346;51.558;6.996;2022-09-09T11:15:15;3.30;;;0.93;;
2672;SDS011;1346;51.558;6.996;2022-09-09T11:17:52;3.63;;;1.00;;
2672;SDS011;1346;51.558;6.996;2022-09-09T11:20:22;6.63;;;1.83;;
2672;SDS011;1346;51.558;6.996;2022-09-09T11:22:52;2.20;;;1.03;;
2672;SDS011;1346;51.558;6.996;2022-09-09T11:25:25;3.93;;;1.00;;
2672;SDS011;1346;51.558;6.996;2022-09-09T11:30:57;5.73;;;1.60;;
2672;SDS011;1346;51.558;6.996;2022-09-09T11:33:53;4.67;;;1.00;;
2672;SDS011;1346;51.558;6.996;2022-09-09T11:40:04;5.17;;;1.27;;
2672;SDS011;1346;51.558;6.996;2022-09-09T11:42:43;6.00;;;1.40;;
2672;SDS011;1346;51.558;6.996;2022-09-09T11:45:19;4.40;;;1.00;;
2672;SDS011;1346;51.558;6.996;2022-09-09T11:47:51;4.57;;;1.80;;
2672;SDS011;1346;51.558;6.996;2022-09-09T11:50:35;6.27;;;1.53;;
2672;SDS011;1346;51.558;6.996;2022-09-09T11:53:17;3.90;;;1.43;;
2672;SDS011;1346;51.558;6.996;2022-09-09T11:55:47;2.50;;;1.00;;
2672;SDS011;1346;51.558;6.996;2022-09-09T11:58:26;5.00;;;1.40;;
2672;SDS011;1346;51.558;6.996;2022-09-09T12:00:57;6.43;;;1.87;;
2672;SDS011;1346;51.558;6.996;2022-09-09T12:03:39;3.40;;;1.70;;
2672;SDS011;1346;51.558;6.996;2022-09-09T12:06:13;3.43;;;1.50;;
2672;SDS011;1346;51.558;6.996;2022-09-09T12:08:45;3.80;;;1.00;;
2672;SDS011;1346;51.558;6.996;2022-09-09T12:11:24;2.20;;;0.87;;
2672;SDS011;1346;51.558;6.996;2022-09-09T12:13:53;5.03;;;1.20;;
2672;SDS011;1346;51.558;6.996;2022-09-09T12:16:28;4.23;;;1.17;;
2672;SDS011;1346;51.558;6.996;2022-09-09T12:19:03;6.53;;;1.30;;
2672;SDS011;1346;51.558;6.996;2022-09-09T12:21:36;3.30;;;1.00;;
2672;SDS011;1346;51.558;6.996;2022-09-09T12:24:11;4.10;;;1.20;;
2672;SDS011;1346;51.558;6.996;2022-09-09T12:26:43;2.80;;;1.20;;
2672;SDS011;1346;51.558;6.996;2022-09-09T12:29:24;3.60;;;1.20;;
2672;SDS011;1346;51.558;6.996;2022-09-09T12:31:56;6.87;;;1.70;;
2672;SDS011;1346;51.558;6.996;2022-09-09T12:34:34;3.50;;;1.67;;
2672;SDS011;1346;51.558;6.996;2022-09-09T12:39:56;4.23;;;0.80;;
2672;SDS011;1346;51.558;6.996;2022-09-09T12:42:25;2.43;;;1.03;;
2672;SDS011;1346;51.558;6.996;2022-09-09T12:44:53;4.50;;;0.83;;
2672;SDS011;1346;51.558;6.996;2022-09-09T12:47:23;2.60;;;0.70;;
2672;SDS011;1346;51.558;6.996;2022-09-09T12:50:00;3.47;;;0.83;;
2672;SDS011;1346;51.558;6.996;2022-09-09T12:52:30;2.93;;;0.93;;
2672;SDS011;1346;51.558;6.996;2022-09-09T12:55:03;3.50;;;1.03;;
2672;SDS011;1346;51.558;6.996;2022-09-09T12:57:34;3.00;;;1.40;;
2672;SDS011;1346;51.558;6.996;2022-09-09T13:00:06;5.53;;;1.00;;
2672;SDS011;1346;51.558;6.996;2022-09-09T13:02:45;8.07;;;1.80;;
2672;SDS011;1346;51.558;6.996;2022-09-09T13:05:15;4.23;;;1.33;;
2672;SDS011;1346;51.558;6.996;2022-09-09T13:07:46;4.97;;;1.70;;
2672;SDS011;1346;51.558;6.996;2022-09-09T13:10:14;4.23;;;1.83;;
2672;SDS011;1346;51.558;6.996;2022-09-09T13:12:49;2.70;;;1.27;;
2672;SDS011;1346;51.558;6.996;2022-09-09T13:15:19;4.30;;;1.27;;
2672;SDS011;1346;51.558;6.996;2022-09-09T13:17:52;5.33;;;1.60;;
2672;SDS011;1346;51.558;6.996;2022-09-09T13:20:22;3.40;;;1.20;;
2672;SDS011;1346;51.558;6.996;2022-09-09T13:22:52;3.60;;;1.47;;
2672;SDS011;1346;51.558;6.996;2022-09-09T13:25:22;3.83;;;1.60;;
2672;SDS011;1346;51.558;6.996;2022-09-09T13:27:55;4.50;;;1.60;;
2672;SDS011;1346;51.558;6.996;2022-09-09T13:30:26;4.20;;;1.20;;
2672;SDS011;1346;51.558;6.996;2022-09-09T13:32:59;4.43;;;1.90;;
2672;SDS011;1346;51.558;6.996;2022-09-09T13:35:28;2.57;;;1.17;;
2672;SDS011;1346;51.558;6.996;2022-09-09T13:37:56;5.53;;;1.50;;
2672;SDS011;1346;51.558;6.996;2022-09-09T13:40:24;3.50;;;1.53;;
2672;SDS011;1346;51.558;6.996;2022-09-09T13:42:52;7.43;;;1.80;;
2672;SDS011;1346;51.558;6.996;2022-09-09T13:45:24;4.73;;;1.33;;
2672;SDS011;1346;51.558;6.996;2022-09-09T13:47:52;3.30;;;1.40;;
2672;SDS011;1346;51.558;6.996;2022-09-09T13:50:21;2.70;;;1.10;;
2672;SDS011;1346;51.558;6.996;2022-09-09T13:52:51;1.70;;;1.07;;
2672;SDS011;1346;51.558;6.996;2022-09-09T13:55:22;4.20;;;1.43;;
2672;SDS011;1346;51.558;6.996;2022-09-09T13:57:55;5.93;;;1.60;;
2672;SDS011;1346;51.558;6.996;2022-09-09T14:00:23;3.87;;;1.50;;
2672;SDS011;1346;51.558;6.996;2022-09-09T14:02:51;5.60;;;1.63;;
2672;SDS011;1346;51.558;6.996;2022-09-09T14:05:19;6.83;;;1.77;;
2672;SDS011;1346;51.558;6.996;2022-09-09T14:07:48;3.07;;;1.73;;
2672;SDS011;1346;51.558;6.996;2022-09-09T14:10:15;4.93;;;1.70;;
2672;SDS011;1346;51.558;6.996;2022-09-09T14:12:44;7.23;;;1.90;;
2672;SDS011;1346;51.558;6.996;2022-09-09T14:15:11;3.10;;;1.50;;
2672;SDS011;1346;51.558;6.996;2022-09-09T14:17:39;3.70;;;1.80;;
2672;SDS011;1346;51.558;6.996;2022-09-09T14:20:07;4.27;;;2.10;;
2672;SDS011;1346;51.558;6.996;2022-09-09T14:22:36;3.50;;;1.80;;
2672;SDS011;1346;51.558;6.996;2022-09-09T14:25:06;3.13;;;1.20;;
2672;SDS011;1346;51.558;6.996;2022-09-09T14:27:33;4.23;;;1.60;;
2672;SDS011;1346;51.558;6.996;2022-09-09T14:30:02;3.47;;;1.30;;
2672;SDS011;1346;51.558;6.996;2022-09-09T14:32:29;6.30;;;1.60;;
2672;SDS011;1346;51.558;6.996;2022-09-09T14:34:56;5.57;;;1.40;;
2672;SDS011;1346;51.558;6.996;2022-09-09T14:37:23;4.93;;;1.60;;
2672;SDS011;1346;51.558;6.996;2022-09-09T14:39:51;3.00;;;1.13;;
2672;SDS011;1346;51.558;6.996;2022-09-09T14:42:19;2.43;;;1.27;;
2672;SDS011;1346;51.558;6.996;2022-09-09T14:44:47;4.13;;;1.77;;
2672;SDS011;1346;51.558;6.996;2022-09-09T14:47:15;3.73;;;1.53;;
2672;SDS011;1346;51.558;6.996;2022-09-09T14:49:42;3.70;;;1.10;;
2672;SDS011;1346;51.558;6.996;2022-09-09T14:52:09;3.37;;;1.30;;
2672;SDS011;1346;51.558;6.996;2022-09-09T14:54:36;3.47;;;1.80;;
2672;SDS011;1346;51.558;6.996;2022-09-09T14:57:03;4.67;;;2.00;;
2672;SDS011;1346;51.558;6.996;2022-09-09T14:59:30;3.17;;;1.20;;
2672;SDS011;1346;51.558;6.996;2022-09-09T15:01:57;5.30;;;1.80;;
2672;SDS011;1346;51.558;6.996;2022-09-09T15:04:30;10.20;;;2.40;;
2672;SDS011;1346;51.558;6.996;2022-09-09T15:06:57;5.03;;;1.30;;
2672;SDS011;1346;51.558;6.996;2022-09-09T15:09:24;4.73;;;1.20;;
2672;SDS011;1346;51.558;6.996;2022-09-09T15:11:51;3.40;;;1.60;;
2672;SDS011;1346;51.558;6.996;2022-09-09T15:14:18;3.67;;;0.70;;
2672;SDS011;1346;51.558;6.996;2022-09-09T15:16:45;2.63;;;1.10;;
2672;SDS011;1346;51.558;6.996;2022-09-09T15:19:12;4.60;;;1.20;;
2672;SDS011;1346;51.558;6.996;2022-09-09T15:21:40;3.57;;;0.90;;
2672;SDS011;1346;51.558;6.996;2022-09-09T15:24:07;2.30;;;1.00;;
2672;SDS011;1346;51.558;6.996;2022-09-09T15:26:35;5.07;;;1.40;;
2672;SDS011;1346;51.558;6.996;2022-09-09T15:29:04;5.13;;;1.47;;
2672;SDS011;1346;51.558;6.996;2022-09-09T15:31:32;4.80;;;1.37;;
2672;SDS011;1346;51.558;6.996;2022-09-09T15:34:00;3.17;;;1.10;;
2672;SDS011;1346;51.558;6.996;2022-09-09T15:36:29;8.03;;;1.30;;
2672;SDS011;1346;51.558;6.996;2022-09-09T15:38:59;3.40;;;1.70;;
2672;SDS011;1346;51.558;6.996;2022-09-09T15:41:28;3.73;;;1.37;;
2672;SDS011;1346;51.558;6.996;2022-09-09T15:43:56;5.83;;;1.70;;
2672;SDS011;1346;51.558;6.996;2022-09-09T15:46:25;9.47;;;2.23;;
2672;SDS011;1346;51.558;6.996;2022-09-09T15:48:56;4.50;;;1.73;;
2672;SDS011;1346;51.558;6.996;2022-09-09T15:51:25;4.70;;;1.50;;
2672;SDS011;1346;51.558;6.996;2022-09-09T15:53:55;5.07;;;2.10;;